Espaço - Ciências - Fenômenos Naturais
Meteógrafos Informações Meteorológicas em tempo real

Aeroporto de Maceió

Histórico do Tempo
Temperatura atual: 26 graus 78 F    Umidade relativa: 83 %
Velocidade do vento: 04 nós 7 Km/h    Direção: 260 graus W
Ajuste do altímetro ..: 1015 HPA
Visibilidade: Ótima    Tempo presente: Não Disponível

Observação
Poucas nuvens a 3000 Pés.

Data Hora BRTTempo°CUmidadePressãoVentoVisib.
24/05 - 07:56   Não Disponível 26° 83% 1015 Oeste/7 km/h OK
24/05 - 06:56   Não Disponível 24° 88% 1014 Oeste/5 km/h OK
24/05 - 05:56   Não Disponível 22° 94% 1014 Oeste/5 km/h OK
24/05 - 04:56   Não Disponível 22° 94% 1013 Oeste/5 km/h OK
24/05 - 03:56   Nuvens esparsas 22° 94% 1013 Oeste-noroeste/5 km/h OK
24/05 - 02:56   Nuvens esparsas 22° 94% 1013 Oeste/5 km/h OK
24/05 - 01:56   Não Disponível 23° 88% 1013 Oeste/3 km/h OK
24/05 - 00:56   Não Disponível 22° 94% 1013 Noroeste/5 km/h OK
23/05 - 23:56   Não Disponível 23° 88% 1014 Noroeste/3 km/h OK
23/05 - 22:56   Não Disponível 23° 88% 1014 Oeste-noroeste/3 km/h OK
23/05 - 21:56   Céu Limpo 23° 88% 1015 Norte-noroeste/5 km/h OK
23/05 - 20:56   Céu Limpo 24° 83% 1014 Leste/7 km/h OK
23/05 - 19:56   Céu Limpo 24° 83% 1014 Leste/7 km/h OK
23/05 - 18:56   Céu Limpo 25° 83% 1014 Este-sudeste/7 km/h OK
23/05 - 17:56   Céu Limpo 27° 69% 1013 Sul-sudeste/5 km/h OK
23/05 - 16:56   Céu Limpo 28° 65% 1013 Sul/9 km/h OK
23/05 - 15:56   Não Disponível 28° 61% 1012 Sul/7 km/h OK
23/05 - 14:56   Poucas nuvens esparsas 29° 62% 1012 Sul-sudoeste/12 km/h OK
23/05 - 13:56   Parcialmente Nublado 28° 61% 1013 Sul/14 km/h OK
23/05 - 12:56   Parcialmente Nublado 27° 74% 1014 Sudoeste/16 km/h OK
23/05 - 11:56   Parcialmente Nublado 29° 66% 1014 Sul/21 km/h OK
23/05 - 10:56   Parcialmente Nublado 29° 62% 1015 Sul/14 km/h OK
23/05 - 09:56   Parcialmente Nublado 28° 54% 1016 Este-sudeste/7 km/h OK
23/05 - 08:56   Parcialmente Nublado 25° 88% 1016 Sul/10 km/h OK


Apolo11.com - Todos os direitos reservados - 2000 - 2019
Política de Privacidade   |     Termo de Uso e Licenciamento   |  -   Entre em Contato

"Política é a guerra sem sangue enquanto a guerra é a política com sangue" - Mao Tsé-Tung